sensor_id;sensor_type;location;lat;lon;timestamp;pressure;altitude;pressure_sealevel;temperature;humidity
62655;BME280;48717;55.556;37.816;2023-01-28T00:02:07;100047.47;;;-2.13;100.00
62655;BME280;48717;55.556;37.816;2023-01-28T00:04:34;100078.75;;;-1.92;100.00
62655;BME280;48717;55.556;37.816;2023-01-28T00:07:01;100071.66;;;-1.96;100.00
62655;BME280;48717;55.556;37.816;2023-01-28T00:09:28;100071.16;;;-1.89;100.00
62655;BME280;48717;55.556;37.816;2023-01-28T00:11:55;100073.59;;;-1.92;100.00
62655;BME280;48717;55.556;37.816;2023-01-28T00:14:22;100046.91;;;-2.07;100.00
62655;BME280;48717;55.556;37.816;2023-01-28T00:16:49;100060.81;;;-1.89;100.00
62655;BME280;48717;55.556;37.816;2023-01-28T00:19:16;100066.47;;;-1.96;100.00
62655;BME280;48717;55.556;37.816;2023-01-28T00:21:43;100052.41;;;-2.01;100.00
62655;BME280;48717;55.556;37.816;2023-01-28T00:24:10;100048.84;;;-2.03;100.00
62655;BME280;48717;55.556;37.816;2023-01-28T00:26:37;100077.13;;;-1.90;100.00
62655;BME280;48717;55.556;37.816;2023-01-28T00:29:04;100032.69;;;-2.16;100.00
62655;BME280;48717;55.556;37.816;2023-01-28T00:31:32;100075.19;;;-1.94;100.00
62655;BME280;48717;55.556;37.816;2023-01-28T00:34:01;100044.50;;;-2.04;100.00
62655;BME280;48717;55.556;37.816;2023-01-28T00:36:28;100067.19;;;-1.99;100.00
62655;BME280;48717;55.556;37.816;2023-01-28T00:38:57;100080.53;;;-1.91;100.00
62655;BME280;48717;55.556;37.816;2023-01-28T00:41:27;100068.25;;;-1.95;100.00
62655;BME280;48717;55.556;37.816;2023-01-28T00:43:57;100068.06;;;-1.98;100.00
62655;BME280;48717;55.556;37.816;2023-01-28T00:46:24;100032.63;;;-2.17;100.00
62655;BME280;48717;55.556;37.816;2023-01-28T00:48:53;100075.19;;;-1.94;100.00
62655;BME280;48717;55.556;37.816;2023-01-28T00:51:22;100022.84;;;-2.23;100.00
62655;BME280;48717;55.556;37.816;2023-01-28T00:53:49;100071.97;;;-1.90;100.00
62655;BME280;48717;55.556;37.816;2023-01-28T00:56:16;100082.38;;;-1.88;100.00
62655;BME280;48717;55.556;37.816;2023-01-28T00:58:44;99993.59;;;-2.39;100.00
62655;BME280;48717;55.556;37.816;2023-01-28T01:01:18;100085.13;;;-1.85;100.00
62655;BME280;48717;55.556;37.816;2023-01-28T01:03:47;100038.03;;;-2.13;100.00
62655;BME280;48717;55.556;37.816;2023-01-28T01:06:15;100052.25;;;-2.04;100.00
62655;BME280;48717;55.556;37.816;2023-01-28T01:08:42;100027.28;;;-2.20;100.00
62655;BME280;48717;55.556;37.816;2023-01-28T01:11:17;100060.97;;;-2.02;100.00
62655;BME280;48717;55.556;37.816;2023-01-28T01:13:50;100026.38;;;-2.21;100.00
62655;BME280;48717;55.556;37.816;2023-01-28T01:16:18;100019.78;;;-2.32;100.00
62655;BME280;48717;55.556;37.816;2023-01-28T01:18:47;100096.03;;;-1.91;100.00
62655;BME280;48717;55.556;37.816;2023-01-28T01:21:18;100081.81;;;-1.99;100.00
62655;BME280;48717;55.556;37.816;2023-01-28T01:23:46;100047.88;;;-2.22;100.00
62655;BME280;48717;55.556;37.816;2023-01-28T01:26:14;100056.84;;;-2.15;100.00
62655;BME280;48717;55.556;37.816;2023-01-28T01:28:42;100073.38;;;-2.12;100.00
62655;BME280;48717;55.556;37.816;2023-01-28T01:31:12;100079.53;;;-2.10;100.00
62655;BME280;48717;55.556;37.816;2023-01-28T01:33:42;100059.78;;;-2.24;100.00
62655;BME280;48717;55.556;37.816;2023-01-28T01:36:11;100053.03;;;-2.22;100.00
62655;BME280;48717;55.556;37.816;2023-01-28T01:38:38;100079.28;;;-2.14;100.00
62655;BME280;48717;55.556;37.816;2023-01-28T01:41:08;100027.81;;;-2.43;100.00
62655;BME280;48717;55.556;37.816;2023-01-28T01:44:05;100047.53;;;-2.28;100.00
62655;BME280;48717;55.556;37.816;2023-01-28T01:46:47;100078.41;;;-2.15;100.00
62655;BME280;48717;55.556;37.816;2023-01-28T01:49:26;100056.06;;;-2.29;100.00
62655;BME280;48717;55.556;37.816;2023-01-28T01:52:05;100057.88;;;-2.28;100.00
62655;BME280;48717;55.556;37.816;2023-01-28T01:54:35;100075.66;;;-2.18;100.00
62655;BME280;48717;55.556;37.816;2023-01-28T01:57:07;100050.91;;;-2.29;100.00
62655;BME280;48717;55.556;37.816;2023-01-28T01:59:36;100083.41;;;-2.18;100.00
62655;BME280;48717;55.556;37.816;2023-01-28T02:02:07;100063.19;;;-2.25;100.00
62655;BME280;48717;55.556;37.816;2023-01-28T02:04:39;100067.31;;;-2.29;100.00
62655;BME280;48717;55.556;37.816;2023-01-28T02:07:09;100080.31;;;-2.27;100.00
62655;BME280;48717;55.556;37.816;2023-01-28T02:09:39;100079.41;;;-2.28;100.00
62655;BME280;48717;55.556;37.816;2023-01-28T02:12:14;100047.94;;;-2.52;100.00
62655;BME280;48717;55.556;37.816;2023-01-28T02:14:46;100080.13;;;-2.30;100.00
62655;BME280;48717;55.556;37.816;2023-01-28T02:17:15;100060.69;;;-2.55;100.00
62655;BME280;48717;55.556;37.816;2023-01-28T02:19:58;100088.34;;;-2.38;100.00
62655;BME280;48717;55.556;37.816;2023-01-28T02:23:06;100098.66;;;-2.38;100.00
62655;BME280;48717;55.556;37.816;2023-01-28T02:31:33;100098.16;;;-2.47;100.00
62655;BME280;48717;55.556;37.816;2023-01-28T02:34:12;100099.16;;;-2.45;100.00
62655;BME280;48717;55.556;37.816;2023-01-28T02:36:48;100076.19;;;-2.55;100.00
62655;BME280;48717;55.556;37.816;2023-01-28T02:39:30;100087.84;;;-2.47;100.00
62655;BME280;48717;55.556;37.816;2023-01-28T02:44:32;100098.16;;;-2.47;100.00
62655;BME280;48717;55.556;37.816;2023-01-28T02:46:59;100045.53;;;-2.81;100.00
62655;BME280;48717;55.556;37.816;2023-01-28T02:49:49;100042.84;;;-2.82;100.00
62655;BME280;48717;55.556;37.816;2023-01-28T02:52:23;100098.06;;;-2.49;100.00
62655;BME280;48717;55.556;37.816;2023-01-28T02:55:36;100111.88;;;-2.48;100.00
62655;BME280;48717;55.556;37.816;2023-01-28T03:01:35;100107.63;;;-2.63;100.00
62655;BME280;48717;55.556;37.816;2023-01-28T03:04:29;100114.91;;;-2.55;100.00
62655;BME280;48717;55.556;37.816;2023-01-28T03:07:01;100089.81;;;-2.73;100.00
62655;BME280;48717;55.556;37.816;2023-01-28T03:09:30;100054.38;;;-2.92;100.00
62655;BME280;48717;55.556;37.816;2023-01-28T03:12:07;100114.22;;;-2.53;100.00
62655;BME280;48717;55.556;37.816;2023-01-28T03:14:58;100104.34;;;-2.60;100.00
62655;BME280;48717;55.556;37.816;2023-01-28T03:17:56;100091.00;;;-2.68;100.00
62655;BME280;48717;55.556;37.816;2023-01-28T03:20:50;100120.25;;;-2.52;100.00
62655;BME280;48717;55.556;37.816;2023-01-28T03:23:53;100084.50;;;-2.76;100.00
62655;BME280;48717;55.556;37.816;2023-01-28T03:26:51;100119.56;;;-2.65;100.00
62655;BME280;48717;55.556;37.816;2023-01-28T03:29:41;100125.81;;;-2.61;100.00
62655;BME280;48717;55.556;37.816;2023-01-28T03:32:30;100104.06;;;-2.80;100.00
62655;BME280;48717;55.556;37.816;2023-01-28T03:35:21;100128.28;;;-2.63;100.00
62655;BME280;48717;55.556;37.816;2023-01-28T03:38:09;100112.09;;;-2.75;100.00
62655;BME280;48717;55.556;37.816;2023-01-28T03:40:53;100119.22;;;-2.71;100.00
62655;BME280;48717;55.556;37.816;2023-01-28T03:43:21;100120.66;;;-2.76;100.00
62655;BME280;48717;55.556;37.816;2023-01-28T03:45:49;100129.63;;;-2.69;100.00
62655;BME280;48717;55.556;37.816;2023-01-28T03:48:21;100117.06;;;-2.78;100.00
62655;BME280;48717;55.556;37.816;2023-01-28T03:50:49;100119.84;;;-2.75;100.00
62655;BME280;48717;55.556;37.816;2023-01-28T03:53:17;100128.91;;;-2.67;100.00
62655;BME280;48717;55.556;37.816;2023-01-28T03:55:48;100111.75;;;-2.66;100.00
62655;BME280;48717;55.556;37.816;2023-01-28T03:58:16;100099.63;;;-2.82;100.00
62655;BME280;48717;55.556;37.816;2023-01-28T04:00:45;100133.28;;;-2.66;100.00
62655;BME280;48717;55.556;37.816;2023-01-28T04:03:18;100124.38;;;-2.71;100.00
62655;BME280;48717;55.556;37.816;2023-01-28T04:06:08;100112.44;;;-2.69;100.00
62655;BME280;48717;55.556;37.816;2023-01-28T04:09:04;100114.25;;;-2.68;100.00
62655;BME280;48717;55.556;37.816;2023-01-28T04:11:39;100105.97;;;-2.77;100.00
62655;BME280;48717;55.556;37.816;2023-01-28T04:14:08;100129.25;;;-2.60;100.00
62655;BME280;48717;55.556;37.816;2023-01-28T04:16:46;100130.25;;;-2.58;100.00
62655;BME280;48717;55.556;37.816;2023-01-28T04:19:14;100124.81;;;-2.63;100.00
62655;BME280;48717;55.556;37.816;2023-01-28T04:21:43;100082.38;;;-2.83;100.00
62655;BME280;48717;55.556;37.816;2023-01-28T04:24:10;100104.97;;;-2.79;100.00
62655;BME280;48717;55.556;37.816;2023-01-28T04:26:38;100094.13;;;-2.89;100.00
62655;BME280;48717;55.556;37.816;2023-01-28T04:29:05;100136.47;;;-2.70;100.00
62655;BME280;48717;55.556;37.816;2023-01-28T04:31:34;100123.31;;;-2.74;100.00
62655;BME280;48717;55.556;37.816;2023-01-28T04:34:18;100138.09;;;-2.72;100.00
62655;BME280;48717;55.556;37.816;2023-01-28T04:37:11;100120.22;;;-2.99;99.49
62655;BME280;48717;55.556;37.816;2023-01-28T04:40:17;100142.00;;;-2.94;99.63
62655;BME280;48717;55.556;37.816;2023-01-28T04:43:07;100134.59;;;-3.03;99.39
62655;BME280;48717;55.556;37.816;2023-01-28T04:45:57;100125.00;;;-3.05;99.39
62655;BME280;48717;55.556;37.816;2023-01-28T04:48:49;100153.13;;;-2.95;98.63
62655;BME280;48717;55.556;37.816;2023-01-28T04:51:32;100151.94;;;-3.00;98.80
62655;BME280;48717;55.556;37.816;2023-01-28T04:54:38;100149.31;;;-3.02;98.91
62655;BME280;48717;55.556;37.816;2023-01-28T04:57:05;100111.00;;;-3.24;98.86
62655;BME280;48717;55.556;37.816;2023-01-28T04:59:34;100146.44;;;-3.06;98.84
62655;BME280;48717;55.556;37.816;2023-01-28T05:02:01;100124.72;;;-3.25;98.56
62655;BME280;48717;55.556;37.816;2023-01-28T05:04:29;100149.81;;;-3.07;98.55
62655;BME280;48717;55.556;37.816;2023-01-28T05:06:56;100102.53;;;-3.36;99.36
62655;BME280;48717;55.556;37.816;2023-01-28T05:09:29;100138.47;;;-3.24;98.75
62655;BME280;48717;55.556;37.816;2023-01-28T05:11:56;100162.94;;;-3.18;98.77
62655;BME280;48717;55.556;37.816;2023-01-28T05:14:23;100163.16;;;-3.15;98.45
62655;BME280;48717;55.556;37.816;2023-01-28T05:17:10;100126.56;;;-3.37;98.91
62655;BME280;48717;55.556;37.816;2023-01-28T05:19:38;100132.88;;;-3.32;99.00
62655;BME280;48717;55.556;37.816;2023-01-28T05:22:12;100123.78;;;-3.41;99.07
62655;BME280;48717;55.556;37.816;2023-01-28T05:24:42;100153.00;;;-3.26;99.21
62655;BME280;48717;55.556;37.816;2023-01-28T05:27:09;100126.25;;;-3.42;99.24
62655;BME280;48717;55.556;37.816;2023-01-28T05:29:36;100114.69;;;-3.49;99.24
62655;BME280;48717;55.556;37.816;2023-01-28T05:32:04;100170.09;;;-3.13;99.09
62655;BME280;48717;55.556;37.816;2023-01-28T05:34:31;100143.19;;;-3.32;98.69
62655;BME280;48717;55.556;37.816;2023-01-28T05:37:03;100160.63;;;-3.28;99.40
62655;BME280;48717;55.556;37.816;2023-01-28T05:39:33;100169.38;;;-3.26;98.88
62655;BME280;48717;55.556;37.816;2023-01-28T05:42:01;100149.56;;;-3.41;98.74
62655;BME280;48717;55.556;37.816;2023-01-28T05:44:29;100140.66;;;-3.46;98.51
62655;BME280;48717;55.556;37.816;2023-01-28T05:47:11;100162.25;;;-3.30;98.68
62655;BME280;48717;55.556;37.816;2023-01-28T05:50:01;100174.13;;;-3.32;98.70
62655;BME280;48717;55.556;37.816;2023-01-28T05:52:42;100159.38;;;-3.35;99.52
62655;BME280;48717;55.556;37.816;2023-01-28T05:55:20;100166.81;;;-3.39;99.46
62655;BME280;48717;55.556;37.816;2023-01-28T05:57:48;100159.38;;;-3.35;99.50
62655;BME280;48717;55.556;37.816;2023-01-28T06:00:19;100117.16;;;-3.65;98.75
62655;BME280;48717;55.556;37.816;2023-01-28T06:02:46;100131.38;;;-3.57;99.40
62655;BME280;48717;55.556;37.816;2023-01-28T06:05:14;100158.22;;;-3.40;99.26
62655;BME280;48717;55.556;37.816;2023-01-28T06:07:46;100163.72;;;-3.34;98.70
62655;BME280;48717;55.556;37.816;2023-01-28T06:10:14;100181.47;;;-3.25;98.11
62655;BME280;48717;55.556;37.816;2023-01-28T06:12:44;100174.94;;;-3.33;97.78
62655;BME280;48717;55.556;37.816;2023-01-28T06:15:34;100157.00;;;-3.60;98.25
62655;BME280;48717;55.556;37.816;2023-01-28T06:18:27;100151.13;;;-3.58;97.67
62655;BME280;48717;55.556;37.816;2023-01-28T06:20:54;100194.31;;;-3.40;98.06
62655;BME280;48717;55.556;37.816;2023-01-28T06:23:21;100179.81;;;-3.38;97.47
62655;BME280;48717;55.556;37.816;2023-01-28T06:25:55;100171.59;;;-3.46;96.63
62655;BME280;48717;55.556;37.816;2023-01-28T06:28:24;100150.94;;;-3.61;96.73
62655;BME280;48717;55.556;37.816;2023-01-28T06:30:52;100178.28;;;-3.49;96.27
62655;BME280;48717;55.556;37.816;2023-01-28T06:33:19;100193.91;;;-3.46;96.33
62655;BME280;48717;55.556;37.816;2023-01-28T06:35:47;100178.44;;;-3.46;95.37
62655;BME280;48717;55.556;37.816;2023-01-28T06:38:14;100189.66;;;-3.46;95.69
62655;BME280;48717;55.556;37.816;2023-01-28T06:40:41;100187.69;;;-3.50;95.36
62655;BME280;48717;55.556;37.816;2023-01-28T06:43:08;100202.56;;;-3.46;95.55
62655;BME280;48717;55.556;37.816;2023-01-28T06:45:35;100163.34;;;-3.69;94.84
62655;BME280;48717;55.556;37.816;2023-01-28T06:48:03;100167.09;;;-3.63;94.60
62655;BME280;48717;55.556;37.816;2023-01-28T06:50:34;100153.88;;;-3.83;94.31
62655;BME280;48717;55.556;37.816;2023-01-28T06:53:01;100186.16;;;-3.61;94.41
62655;BME280;48717;55.556;37.816;2023-01-28T06:55:28;100192.78;;;-3.65;93.32
62655;BME280;48717;55.556;37.816;2023-01-28T06:57:55;100199.66;;;-3.65;93.25
62655;BME280;48717;55.556;37.816;2023-01-28T07:00:22;100207.19;;;-3.69;93.50
62655;BME280;48717;55.556;37.816;2023-01-28T07:02:49;100184.88;;;-3.82;92.94
62655;BME280;48717;55.556;37.816;2023-01-28T07:05:16;100223.00;;;-3.62;92.98
62655;BME280;48717;55.556;37.816;2023-01-28T07:07:45;100207.53;;;-3.62;94.04
62655;BME280;48717;55.556;37.816;2023-01-28T07:10:13;100193.47;;;-3.68;93.95
62655;BME280;48717;55.556;37.816;2023-01-28T07:12:40;100191.09;;;-3.64;92.77
62655;BME280;48717;55.556;37.816;2023-01-28T07:15:10;100210.03;;;-3.50;92.51
62655;BME280;48717;55.556;37.816;2023-01-28T07:17:41;100221.78;;;-3.41;91.87
62655;BME280;48717;55.556;37.816;2023-01-28T07:20:10;100224.75;;;-3.34;91.89
62655;BME280;48717;55.556;37.816;2023-01-28T07:22:40;100224.84;;;-3.33;90.89
62655;BME280;48717;55.556;37.816;2023-01-28T07:25:09;100216.31;;;-3.32;90.32
62655;BME280;48717;55.556;37.816;2023-01-28T07:27:36;100218.97;;;-3.30;90.33
62655;BME280;48717;55.556;37.816;2023-01-28T07:30:03;100194.44;;;-3.52;90.39
62655;BME280;48717;55.556;37.816;2023-01-28T07:32:31;100185.72;;;-3.54;90.24
62655;BME280;48717;55.556;37.816;2023-01-28T07:34:58;100217.63;;;-3.38;90.16
62655;BME280;48717;55.556;37.816;2023-01-28T07:37:25;100200.28;;;-3.41;90.32
62655;BME280;48717;55.556;37.816;2023-01-28T07:39:52;100222.53;;;-3.28;90.91
62655;BME280;48717;55.556;37.816;2023-01-28T07:42:19;100190.31;;;-3.35;90.44
62655;BME280;48717;55.556;37.816;2023-01-28T07:44:46;100211.00;;;-3.20;90.57
62655;BME280;48717;55.556;37.816;2023-01-28T07:47:14;100181.06;;;-3.31;90.74
62655;BME280;48717;55.556;37.816;2023-01-28T07:49:41;100190.47;;;-3.18;89.56
62655;BME280;48717;55.556;37.816;2023-01-28T07:52:08;100163.63;;;-3.35;89.59
62655;BME280;48717;55.556;37.816;2023-01-28T07:54:35;100129.00;;;-3.54;89.13
62655;BME280;48717;55.556;37.816;2023-01-28T07:57:07;100203.63;;;-3.13;88.88
62655;BME280;48717;55.556;37.816;2023-01-28T07:59:35;100200.47;;;-3.23;89.28
62655;BME280;48717;55.556;37.816;2023-01-28T08:02:03;100150.19;;;-3.45;88.82
62655;BME280;48717;55.556;37.816;2023-01-28T08:04:30;100166.34;;;-3.47;88.37
62655;BME280;48717;55.556;37.816;2023-01-28T08:06:58;100165.44;;;-3.34;88.87
62655;BME280;48717;55.556;37.816;2023-01-28T08:09:25;100183.22;;;-3.24;88.06
62655;BME280;48717;55.556;37.816;2023-01-28T08:11:52;100193.59;;;-3.09;88.28
62655;BME280;48717;55.556;37.816;2023-01-28T08:14:20;100192.97;;;-3.05;88.28
62655;BME280;48717;55.556;37.816;2023-01-28T08:16:47;100178.38;;;-3.04;87.96
62655;BME280;48717;55.556;37.816;2023-01-28T08:19:14;100207.31;;;-2.80;87.01
62655;BME280;48717;55.556;37.816;2023-01-28T08:21:41;100208.50;;;-2.74;86.64
62655;BME280;48717;55.556;37.816;2023-01-28T08:24:08;100216.06;;;-2.78;85.67
62655;BME280;48717;55.556;37.816;2023-01-28T08:26:36;100212.28;;;-2.98;85.18
62655;BME280;48717;55.556;37.816;2023-01-28T08:29:03;100200.31;;;-3.11;85.76
62655;BME280;48717;55.556;37.816;2023-01-28T08:31:30;100210.31;;;-3.02;84.79
62655;BME280;48717;55.556;37.816;2023-01-28T08:33:57;100199.41;;;-2.98;84.90
62655;BME280;48717;55.556;37.816;2023-01-28T08:36:27;100214.63;;;-2.88;84.11
62655;BME280;48717;55.556;37.816;2023-01-28T08:38:56;100197.06;;;-2.93;83.92
62655;BME280;48717;55.556;37.816;2023-01-28T08:41:23;100207.50;;;-2.92;83.07
62655;BME280;48717;55.556;37.816;2023-01-28T08:43:50;100203.41;;;-2.88;83.42
62655;BME280;48717;55.556;37.816;2023-01-28T08:46:17;100211.63;;;-2.80;83.00
62655;BME280;48717;55.556;37.816;2023-01-28T08:48:44;100211.97;;;-2.74;82.91
62655;BME280;48717;55.556;37.816;2023-01-28T08:51:11;100206.63;;;-2.77;82.60
62655;BME280;48717;55.556;37.816;2023-01-28T08:53:38;100214.81;;;-2.84;82.88
62655;BME280;48717;55.556;37.816;2023-01-28T08:56:05;100207.06;;;-2.84;82.84
62655;BME280;48717;55.556;37.816;2023-01-28T08:58:32;100206.78;;;-2.74;83.27
62655;BME280;48717;55.556;37.816;2023-01-28T09:01:04;100189.00;;;-2.84;82.35
62655;BME280;48717;55.556;37.816;2023-01-28T09:03:32;100175.28;;;-2.83;82.49
62655;BME280;48717;55.556;37.816;2023-01-28T09:06:02;100200.59;;;-2.63;81.91
62655;BME280;48717;55.556;37.816;2023-01-28T09:08:29;100199.34;;;-2.69;81.43
62655;BME280;48717;55.556;37.816;2023-01-28T09:10:57;100196.13;;;-2.65;81.14
62655;BME280;48717;55.556;37.816;2023-01-28T09:13:25;100199.34;;;-2.54;81.73
62655;BME280;48717;55.556;37.816;2023-01-28T09:15:53;100168.59;;;-2.65;80.98
62655;BME280;48717;55.556;37.816;2023-01-28T09:18:20;100185.81;;;-2.50;81.34
62655;BME280;48717;55.556;37.816;2023-01-28T09:20:47;100180.09;;;-2.44;80.68
62655;BME280;48717;55.556;37.816;2023-01-28T09:23:14;100148.31;;;-2.58;80.42
62655;BME280;48717;55.556;37.816;2023-01-28T09:25:41;100188.28;;;-2.37;80.54
62655;BME280;48717;55.556;37.816;2023-01-28T09:28:08;100160.94;;;-2.48;80.54
62655;BME280;48717;55.556;37.816;2023-01-28T09:30:35;100175.09;;;-2.41;80.70
62655;BME280;48717;55.556;37.816;2023-01-28T09:33:05;100183.13;;;-2.37;81.10
62655;BME280;48717;55.556;37.816;2023-01-28T09:35:33;100177.78;;;-2.40;81.04
62655;BME280;48717;55.556;37.816;2023-01-28T09:38:04;100182.41;;;-2.34;80.39
62655;BME280;48717;55.556;37.816;2023-01-28T09:40:36;100185.72;;;-2.37;80.25
62655;BME280;48717;55.556;37.816;2023-01-28T09:46:34;100178.91;;;-2.34;79.90
62655;BME280;48717;55.556;37.816;2023-01-28T09:49:11;100169.22;;;-2.39;80.15
62655;BME280;48717;55.556;37.816;2023-01-28T09:51:50;100180.78;;;-2.32;80.32
62655;BME280;48717;55.556;37.816;2023-01-28T09:54:34;100178.28;;;-2.30;79.91
62655;BME280;48717;55.556;37.816;2023-01-28T09:57:26;100172.34;;;-2.44;79.96
62655;BME280;48717;55.556;37.816;2023-01-28T09:59:56;100152.69;;;-2.57;80.63
62655;BME280;48717;55.556;37.816;2023-01-28T10:06:23;100171.19;;;-2.34;80.91
62655;BME280;48717;55.556;37.816;2023-01-28T10:11:15;100169.41;;;-2.36;80.66
62655;BME280;48717;55.556;37.816;2023-01-28T10:14:04;100167.78;;;-2.33;80.05
62655;BME280;48717;55.556;37.816;2023-01-28T10:16:52;100153.72;;;-2.39;80.00
62655;BME280;48717;55.556;37.816;2023-01-28T10:19:26;100133.69;;;-2.43;80.12
62655;BME280;48717;55.556;37.816;2023-01-28T10:22:00;100154.22;;;-2.29;79.57
62655;BME280;48717;55.556;37.816;2023-01-28T10:24:56;100122.91;;;-2.36;79.05
62655;BME280;48717;55.556;37.816;2023-01-28T10:27:33;100148.50;;;-2.08;80.66
62655;BME280;48717;55.556;37.816;2023-01-28T10:30:20;100147.88;;;-2.04;79.63
62655;BME280;48717;55.556;37.816;2023-01-28T10:35:19;100140.88;;;-2.22;79.11
62655;BME280;48717;55.556;37.816;2023-01-28T10:37:46;100148.72;;;-2.20;79.67
62655;BME280;48717;55.556;37.816;2023-01-28T10:40:17;100123.06;;;-2.17;79.88
62655;BME280;48717;55.556;37.816;2023-01-28T10:42:44;100136.25;;;-2.28;80.19
62655;BME280;48717;55.556;37.816;2023-01-28T10:45:26;100134.81;;;-2.23;81.23
62655;BME280;48717;55.556;37.816;2023-01-28T10:48:00;100134.09;;;-2.20;79.92
62655;BME280;48717;55.556;37.816;2023-01-28T10:50:30;100145.94;;;-2.24;80.22
62655;BME280;48717;55.556;37.816;2023-01-28T10:52:59;100129.31;;;-2.29;80.02
62655;BME280;48717;55.556;37.816;2023-01-28T10:55:33;100131.97;;;-2.27;80.07
62655;BME280;48717;55.556;37.816;2023-01-28T10:58:03;100109.19;;;-2.34;80.23
62655;BME280;48717;55.556;37.816;2023-01-28T11:00:36;100126.63;;;-2.30;80.36
62655;BME280;48717;55.556;37.816;2023-01-28T11:03:03;100113.63;;;-2.32;80.34
62655;BME280;48717;55.556;37.816;2023-01-28T11:05:30;100116.13;;;-2.33;80.71
62655;BME280;48717;55.556;37.816;2023-01-28T11:08:14;100136.03;;;-2.16;80.34
62655;BME280;48717;55.556;37.816;2023-01-28T11:10:42;100119.81;;;-2.13;80.12
62655;BME280;48717;55.556;37.816;2023-01-28T11:15:48;100131.00;;;-2.29;79.25
62655;BME280;48717;55.556;37.816;2023-01-28T11:18:24;100136.63;;;-2.37;80.30
62655;BME280;48717;55.556;37.816;2023-01-28T11:21:20;100129.50;;;-2.41;80.56
62655;BME280;48717;55.556;37.816;2023-01-28T11:23:52;100117.22;;;-2.45;80.78
62655;BME280;48717;55.556;37.816;2023-01-28T11:26:26;100124.84;;;-2.31;81.22
62655;BME280;48717;55.556;37.816;2023-01-28T11:28:54;100107.91;;;-2.26;81.53
62655;BME280;48717;55.556;37.816;2023-01-28T11:31:22;100109.88;;;-2.22;81.37
62655;BME280;48717;55.556;37.816;2023-01-28T11:36:25;100113.25;;;-2.23;80.26
62655;BME280;48717;55.556;37.816;2023-01-28T11:38:54;100120.19;;;-2.22;80.41
62655;BME280;48717;55.556;37.816;2023-01-28T11:43:59;100122.69;;;-2.24;79.88
62655;BME280;48717;55.556;37.816;2023-01-28T11:52:00;100115.03;;;-2.22;79.72
62655;BME280;48717;55.556;37.816;2023-01-28T12:08:10;100083.63;;;-2.30;80.97
62655;BME280;48717;55.556;37.816;2023-01-28T12:10:48;100082.72;;;-2.30;81.33
62655;BME280;48717;55.556;37.816;2023-01-28T12:13:54;100076.09;;;-2.25;81.59
62655;BME280;48717;55.556;37.816;2023-01-28T12:31:12;100065.81;;;-2.40;82.24
62655;BME280;48717;55.556;37.816;2023-01-28T12:33:54;100067.53;;;-2.41;81.97
62655;BME280;48717;55.556;37.816;2023-01-28T12:44:33;100072.00;;;-2.53;81.87
62655;BME280;48717;55.556;37.816;2023-01-28T12:47:27;100048.34;;;-2.61;82.68
62655;BME280;48717;55.556;37.816;2023-01-28T12:50:00;100071.09;;;-2.54;82.85
62655;BME280;48717;55.556;37.816;2023-01-28T12:52:39;100063.44;;;-2.52;82.93
62655;BME280;48717;55.556;37.816;2023-01-28T12:55:14;100060.06;;;-2.51;82.39
62655;BME280;48717;55.556;37.816;2023-01-28T12:57:43;100063.44;;;-2.52;82.33
62655;BME280;48717;55.556;37.816;2023-01-28T13:00:25;100058.09;;;-2.55;82.43
62655;BME280;48717;55.556;37.816;2023-01-28T13:03:20;100055.47;;;-2.57;82.58
62655;BME280;48717;55.556;37.816;2023-01-28T13:06:16;100059.72;;;-2.57;83.15
62655;BME280;48717;55.556;37.816;2023-01-28T13:08:47;100037.66;;;-2.67;83.05
62655;BME280;48717;55.556;37.816;2023-01-28T13:11:16;100060.66;;;-2.72;83.19
62655;BME280;48717;55.556;37.816;2023-01-28T13:13:45;100049.09;;;-2.79;83.76
62655;BME280;48717;55.556;37.816;2023-01-28T13:16:12;100050.59;;;-2.82;84.13
62655;BME280;48717;55.556;37.816;2023-01-28T13:29:31;100034.34;;;-2.96;85.58
62655;BME280;48717;55.556;37.816;2023-01-28T13:32:01;100049.91;;;-2.95;85.19
62655;BME280;48717;55.556;37.816;2023-01-28T13:34:38;100054.09;;;-2.97;85.58
62655;BME280;48717;55.556;37.816;2023-01-28T13:37:30;100055.69;;;-2.99;85.21
62655;BME280;48717;55.556;37.816;2023-01-28T13:42:39;100044.28;;;-3.03;85.37
62655;BME280;48717;55.556;37.816;2023-01-28T13:47:46;100043.25;;;-3.06;85.54
62655;BME280;48717;55.556;37.816;2023-01-28T13:50:23;100042.72;;;-3.00;85.93
62655;BME280;48717;55.556;37.816;2023-01-28T13:52:58;100034.88;;;-3.02;86.34
62655;BME280;48717;55.556;37.816;2023-01-28T13:55:35;100045.19;;;-3.02;85.76
62655;BME280;48717;55.556;37.816;2023-01-28T13:58:35;100051.25;;;-3.02;85.63
62655;BME280;48717;55.556;37.816;2023-01-28T14:01:36;100045.19;;;-3.02;86.10
62655;BME280;48717;55.556;37.816;2023-01-28T14:07:52;100024.56;;;-3.02;86.46
62655;BME280;48717;55.556;37.816;2023-01-28T14:10:54;99985.06;;;-3.31;86.20
62655;BME280;48717;55.556;37.816;2023-01-28T14:18:51;100019.06;;;-3.08;86.41
62655;BME280;48717;55.556;37.816;2023-01-28T14:21:20;100012.09;;;-3.09;86.38
62655;BME280;48717;55.556;37.816;2023-01-28T14:23:50;99974.75;;;-3.31;86.14
62655;BME280;48717;55.556;37.816;2023-01-28T14:31:55;100017.09;;;-3.12;86.65
62655;BME280;48717;55.556;37.816;2023-01-28T14:34:31;100004.66;;;-3.20;85.98
62655;BME280;48717;55.556;37.816;2023-01-28T14:37:08;99922.13;;;-3.65;86.12
62655;BME280;48717;55.556;37.816;2023-01-28T14:39:50;99945.00;;;-3.56;85.99
62655;BME280;48717;55.556;37.816;2023-01-28T14:44:45;99980.81;;;-3.31;86.44
62655;BME280;48717;55.556;37.816;2023-01-28T14:50:33;100022.25;;;-3.12;86.14
62655;BME280;48717;55.556;37.816;2023-01-28T14:53:17;100020.31;;;-3.17;86.56
62655;BME280;48717;55.556;37.816;2023-01-28T14:58:42;100016.00;;;-3.16;86.96
62655;BME280;48717;55.556;37.816;2023-01-28T15:01:25;99952.03;;;-3.54;86.26
62655;BME280;48717;55.556;37.816;2023-01-28T15:03:53;100005.53;;;-3.19;86.96